sensor_id;sensor_type;location;lat;lon;timestamp;temperature;humidity
12470;DHT22;36499;46.484;13.832;2022-09-13T00:01:35;10.80;99.90
12470;DHT22;36499;46.484;13.832;2022-09-13T00:04:02;10.70;99.90
12470;DHT22;36499;46.484;13.832;2022-09-13T00:06:30;10.70;99.90
12470;DHT22;36499;46.484;13.832;2022-09-13T00:08:57;10.70;99.90
12470;DHT22;36499;46.484;13.832;2022-09-13T00:11:29;10.70;99.90
12470;DHT22;36499;46.484;13.832;2022-09-13T00:13:59;10.60;99.90
12470;DHT22;36499;46.484;13.832;2022-09-13T00:16:27;10.60;99.90
12470;DHT22;36499;46.484;13.832;2022-09-13T00:18:58;10.60;99.90
12470;DHT22;36499;46.484;13.832;2022-09-13T00:21:27;10.60;99.90
12470;DHT22;36499;46.484;13.832;2022-09-13T00:23:55;10.60;99.90
12470;DHT22;36499;46.484;13.832;2022-09-13T00:26:24;10.50;99.90
12470;DHT22;36499;46.484;13.832;2022-09-13T00:28:55;10.50;99.90
12470;DHT22;36499;46.484;13.832;2022-09-13T00:31:24;10.50;99.90
12470;DHT22;36499;46.484;13.832;2022-09-13T00:33:53;10.50;99.90
12470;DHT22;36499;46.484;13.832;2022-09-13T00:36:20;10.50;99.90
12470;DHT22;36499;46.484;13.832;2022-09-13T00:38:47;10.50;99.90
12470;DHT22;36499;46.484;13.832;2022-09-13T00:41:16;10.50;99.90
12470;DHT22;36499;46.484;13.832;2022-09-13T00:43:48;10.40;99.90
12470;DHT22;36499;46.484;13.832;2022-09-13T00:46:24;10.50;99.90
12470;DHT22;36499;46.484;13.832;2022-09-13T00:49:02;10.50;99.90
12470;DHT22;36499;46.484;13.832;2022-09-13T00:51:40;10.50;99.90
12470;DHT22;36499;46.484;13.832;2022-09-13T00:54:14;10.50;99.90
12470;DHT22;36499;46.484;13.832;2022-09-13T00:56:49;10.50;99.90
12470;DHT22;36499;46.484;13.832;2022-09-13T00:59:25;10.50;99.90
12470;DHT22;36499;46.484;13.832;2022-09-13T01:01:57;10.50;99.90
12470;DHT22;36499;46.484;13.832;2022-09-13T01:04:29;10.40;99.90
12470;DHT22;36499;46.484;13.832;2022-09-13T01:07:04;10.40;99.90
12470;DHT22;36499;46.484;13.832;2022-09-13T01:09:43;10.40;99.90
12470;DHT22;36499;46.484;13.832;2022-09-13T01:12:24;10.40;99.90
12470;DHT22;36499;46.484;13.832;2022-09-13T01:14:59;10.40;99.90
12470;DHT22;36499;46.484;13.832;2022-09-13T01:17:32;10.40;99.90
12470;DHT22;36499;46.484;13.832;2022-09-13T01:20:06;10.50;99.90
12470;DHT22;36499;46.484;13.832;2022-09-13T01:27:01;10.50;99.90
12470;DHT22;36499;46.484;13.832;2022-09-13T01:30:10;10.40;99.90
12470;DHT22;36499;46.484;13.832;2022-09-13T01:33:04;10.40;99.90
12470;DHT22;36499;46.484;13.832;2022-09-13T01:35:53;10.30;99.90
12470;DHT22;36499;46.484;13.832;2022-09-13T01:38:43;10.20;99.90
12470;DHT22;36499;46.484;13.832;2022-09-13T01:44:48;10.20;99.90
12470;DHT22;36499;46.484;13.832;2022-09-13T01:47:35;10.20;99.90
12470;DHT22;36499;46.484;13.832;2022-09-13T01:50:18;10.20;99.90
12470;DHT22;36499;46.484;13.832;2022-09-13T01:52:56;10.20;99.90
12470;DHT22;36499;46.484;13.832;2022-09-13T01:55:35;10.20;99.90
12470;DHT22;36499;46.484;13.832;2022-09-13T01:58:15;10.20;99.90
12470;DHT22;36499;46.484;13.832;2022-09-13T02:00:51;10.10;99.90
12470;DHT22;36499;46.484;13.832;2022-09-13T02:03:32;10.00;99.90
12470;DHT22;36499;46.484;13.832;2022-09-13T02:06:07;9.90;99.90
12470;DHT22;36499;46.484;13.832;2022-09-13T02:08:43;9.90;99.90
12470;DHT22;36499;46.484;13.832;2022-09-13T02:11:16;9.90;99.90
12470;DHT22;36499;46.484;13.832;2022-09-13T02:13:48;9.90;99.90
12470;DHT22;36499;46.484;13.832;2022-09-13T02:16:28;9.80;99.90
12470;DHT22;36499;46.484;13.832;2022-09-13T02:19:09;9.80;99.90
12470;DHT22;36499;46.484;13.832;2022-09-13T02:21:46;9.80;99.90
12470;DHT22;36499;46.484;13.832;2022-09-13T02:24:25;9.80;99.90
12470;DHT22;36499;46.484;13.832;2022-09-13T02:27:04;9.80;99.90
12470;DHT22;36499;46.484;13.832;2022-09-13T02:29:40;9.70;99.90
12470;DHT22;36499;46.484;13.832;2022-09-13T02:32:14;9.70;99.90
12470;DHT22;36499;46.484;13.832;2022-09-13T02:34:52;9.70;99.90
12470;DHT22;36499;46.484;13.832;2022-09-13T02:37:24;9.80;99.90
12470;DHT22;36499;46.484;13.832;2022-09-13T02:40:01;9.70;99.90
12470;DHT22;36499;46.484;13.832;2022-09-13T02:42:35;9.70;99.90
12470;DHT22;36499;46.484;13.832;2022-09-13T02:45:06;9.60;99.90
12470;DHT22;36499;46.484;13.832;2022-09-13T02:47:43;9.60;99.90
12470;DHT22;36499;46.484;13.832;2022-09-13T02:50:33;9.60;99.90
12470;DHT22;36499;46.484;13.832;2022-09-13T02:53:12;9.60;99.90
12470;DHT22;36499;46.484;13.832;2022-09-13T02:55:55;9.60;99.90
12470;DHT22;36499;46.484;13.832;2022-09-13T02:58:35;9.60;99.90
12470;DHT22;36499;46.484;13.832;2022-09-13T03:01:15;9.60;99.90
12470;DHT22;36499;46.484;13.832;2022-09-13T03:03:42;9.50;99.90
12470;DHT22;36499;46.484;13.832;2022-09-13T03:06:11;9.50;99.90
12470;DHT22;36499;46.484;13.832;2022-09-13T03:08:39;9.60;99.90
12470;DHT22;36499;46.484;13.832;2022-09-13T03:11:10;9.60;99.90
12470;DHT22;36499;46.484;13.832;2022-09-13T03:13:57;9.60;99.90
12470;DHT22;36499;46.484;13.832;2022-09-13T03:16:44;9.60;99.90
12470;DHT22;36499;46.484;13.832;2022-09-13T03:19:35;9.70;99.90
12470;DHT22;36499;46.484;13.832;2022-09-13T03:22:39;9.50;99.90
12470;DHT22;36499;46.484;13.832;2022-09-13T03:25:41;9.40;99.90
12470;DHT22;36499;46.484;13.832;2022-09-13T03:28:27;9.50;99.90
12470;DHT22;36499;46.484;13.832;2022-09-13T03:31:08;9.50;99.90
12470;DHT22;36499;46.484;13.832;2022-09-13T03:33:45;9.50;99.90
12470;DHT22;36499;46.484;13.832;2022-09-13T03:36:22;9.50;99.90
12470;DHT22;36499;46.484;13.832;2022-09-13T03:39:08;9.40;99.90
12470;DHT22;36499;46.484;13.832;2022-09-13T03:41:47;9.40;99.90
12470;DHT22;36499;46.484;13.832;2022-09-13T03:44:20;9.30;99.90
12470;DHT22;36499;46.484;13.832;2022-09-13T03:46:54;9.30;99.90
12470;DHT22;36499;46.484;13.832;2022-09-13T03:49:26;9.30;99.90
12470;DHT22;36499;46.484;13.832;2022-09-13T03:51:55;9.20;99.90
12470;DHT22;36499;46.484;13.832;2022-09-13T03:54:28;9.20;99.90
12470;DHT22;36499;46.484;13.832;2022-09-13T03:57:08;9.10;99.90
12470;DHT22;36499;46.484;13.832;2022-09-13T03:59:38;9.10;99.90
12470;DHT22;36499;46.484;13.832;2022-09-13T04:02:09;9.20;99.90
12470;DHT22;36499;46.484;13.832;2022-09-13T04:04:38;9.20;99.90
12470;DHT22;36499;46.484;13.832;2022-09-13T04:07:07;9.20;99.90
12470;DHT22;36499;46.484;13.832;2022-09-13T04:09:36;9.20;99.90
12470;DHT22;36499;46.484;13.832;2022-09-13T04:12:05;9.20;99.90
12470;DHT22;36499;46.484;13.832;2022-09-13T04:14:39;9.30;99.90
12470;DHT22;36499;46.484;13.832;2022-09-13T04:17:08;9.30;99.90
12470;DHT22;36499;46.484;13.832;2022-09-13T04:19:38;9.20;99.90
12470;DHT22;36499;46.484;13.832;2022-09-13T04:22:09;9.20;99.90
12470;DHT22;36499;46.484;13.832;2022-09-13T04:24:37;9.20;99.90
12470;DHT22;36499;46.484;13.832;2022-09-13T04:27:05;9.20;99.90
12470;DHT22;36499;46.484;13.832;2022-09-13T04:29:32;9.20;99.90
12470;DHT22;36499;46.484;13.832;2022-09-13T04:32:00;9.10;99.90
12470;DHT22;36499;46.484;13.832;2022-09-13T04:34:27;9.10;99.90
12470;DHT22;36499;46.484;13.832;2022-09-13T04:36:55;9.00;99.90
12470;DHT22;36499;46.484;13.832;2022-09-13T04:39:22;9.00;99.90
12470;DHT22;36499;46.484;13.832;2022-09-13T04:41:51;9.10;99.90
12470;DHT22;36499;46.484;13.832;2022-09-13T04:44:22;9.00;99.90
12470;DHT22;36499;46.484;13.832;2022-09-13T04:46:52;9.10;99.90
12470;DHT22;36499;46.484;13.832;2022-09-13T04:49:20;9.10;99.90
12470;DHT22;36499;46.484;13.832;2022-09-13T04:51:47;9.10;99.90
12470;DHT22;36499;46.484;13.832;2022-09-13T04:54:15;9.20;99.90
12470;DHT22;36499;46.484;13.832;2022-09-13T04:56:43;9.10;99.90
12470;DHT22;36499;46.484;13.832;2022-09-13T04:59:12;9.10;99.90
12470;DHT22;36499;46.484;13.832;2022-09-13T05:01:40;9.20;99.90
12470;DHT22;36499;46.484;13.832;2022-09-13T05:04:08;9.20;99.90
12470;DHT22;36499;46.484;13.832;2022-09-13T05:06:36;9.30;99.90
12470;DHT22;36499;46.484;13.832;2022-09-13T05:09:03;9.30;99.90
12470;DHT22;36499;46.484;13.832;2022-09-13T05:11:31;9.40;99.90
12470;DHT22;36499;46.484;13.832;2022-09-13T05:13:59;9.40;99.90
12470;DHT22;36499;46.484;13.832;2022-09-13T05:16:29;9.40;99.90
12470;DHT22;36499;46.484;13.832;2022-09-13T05:18:58;9.50;99.90
12470;DHT22;36499;46.484;13.832;2022-09-13T05:21:26;9.50;99.90
12470;DHT22;36499;46.484;13.832;2022-09-13T05:23:55;9.50;99.90
12470;DHT22;36499;46.484;13.832;2022-09-13T05:26:24;9.50;99.90
12470;DHT22;36499;46.484;13.832;2022-09-13T05:28:53;9.60;99.90
12470;DHT22;36499;46.484;13.832;2022-09-13T05:31:22;9.70;99.90
12470;DHT22;36499;46.484;13.832;2022-09-13T05:33:55;9.70;99.90
12470;DHT22;36499;46.484;13.832;2022-09-13T05:36:24;9.80;99.90
12470;DHT22;36499;46.484;13.832;2022-09-13T05:38:52;9.90;99.90
12470;DHT22;36499;46.484;13.832;2022-09-13T05:41:20;9.90;99.90
12470;DHT22;36499;46.484;13.832;2022-09-13T05:43:47;10.00;99.90
12470;DHT22;36499;46.484;13.832;2022-09-13T05:46:16;10.10;99.90
12470;DHT22;36499;46.484;13.832;2022-09-13T05:48:48;10.20;99.90
12470;DHT22;36499;46.484;13.832;2022-09-13T05:51:18;10.20;99.90
12470;DHT22;36499;46.484;13.832;2022-09-13T05:53:47;10.30;99.90
12470;DHT22;36499;46.484;13.832;2022-09-13T05:56:17;10.40;99.90
12470;DHT22;36499;46.484;13.832;2022-09-13T05:58:47;10.50;99.90
12470;DHT22;36499;46.484;13.832;2022-09-13T06:01:16;10.60;99.90
12470;DHT22;36499;46.484;13.832;2022-09-13T06:03:46;10.80;99.90
12470;DHT22;36499;46.484;13.832;2022-09-13T06:06:14;10.90;99.90
12470;DHT22;36499;46.484;13.832;2022-09-13T06:08:43;11.10;99.90
12470;DHT22;36499;46.484;13.832;2022-09-13T06:11:13;11.30;99.90
12470;DHT22;36499;46.484;13.832;2022-09-13T06:13:41;11.50;99.90
12470;DHT22;36499;46.484;13.832;2022-09-13T06:16:10;11.60;99.90
12470;DHT22;36499;46.484;13.832;2022-09-13T06:18:39;11.80;99.90
12470;DHT22;36499;46.484;13.832;2022-09-13T06:21:09;11.90;99.90
12470;DHT22;36499;46.484;13.832;2022-09-13T06:23:43;12.10;99.90
12470;DHT22;36499;46.484;13.832;2022-09-13T06:26:12;12.40;99.90
12470;DHT22;36499;46.484;13.832;2022-09-13T06:28:41;12.50;99.90
12470;DHT22;36499;46.484;13.832;2022-09-13T06:31:10;12.70;99.90
12470;DHT22;36499;46.484;13.832;2022-09-13T06:33:40;12.80;99.90
12470;DHT22;36499;46.484;13.832;2022-09-13T06:36:11;13.00;99.90
12470;DHT22;36499;46.484;13.832;2022-09-13T06:38:39;13.10;99.90
12470;DHT22;36499;46.484;13.832;2022-09-13T06:41:10;13.20;99.90
12470;DHT22;36499;46.484;13.832;2022-09-13T06:43:39;13.40;99.90
12470;DHT22;36499;46.484;13.832;2022-09-13T06:46:09;13.50;99.90
12470;DHT22;36499;46.484;13.832;2022-09-13T06:48:39;13.70;99.90
12470;DHT22;36499;46.484;13.832;2022-09-13T06:51:09;13.80;99.90
12470;DHT22;36499;46.484;13.832;2022-09-13T06:53:39;14.00;99.90
12470;DHT22;36499;46.484;13.832;2022-09-13T06:56:11;14.20;99.90
12470;DHT22;36499;46.484;13.832;2022-09-13T06:58:44;14.40;99.90
12470;DHT22;36499;46.484;13.832;2022-09-13T07:01:14;14.60;99.90
12470;DHT22;36499;46.484;13.832;2022-09-13T07:03:44;14.80;99.90
12470;DHT22;36499;46.484;13.832;2022-09-13T07:06:14;14.90;99.90
12470;DHT22;36499;46.484;13.832;2022-09-13T07:08:44;15.10;99.90
12470;DHT22;36499;46.484;13.832;2022-09-13T07:11:14;15.30;99.90
12470;DHT22;36499;46.484;13.832;2022-09-13T07:13:47;15.40;99.90
12470;DHT22;36499;46.484;13.832;2022-09-13T07:16:16;15.60;99.90
12470;DHT22;36499;46.484;13.832;2022-09-13T07:18:44;15.80;99.90
12470;DHT22;36499;46.484;13.832;2022-09-13T07:21:17;15.90;99.90
12470;DHT22;36499;46.484;13.832;2022-09-13T07:23:44;16.10;99.90
12470;DHT22;36499;46.484;13.832;2022-09-13T07:26:12;16.30;99.90
12470;DHT22;36499;46.484;13.832;2022-09-13T07:28:41;16.40;99.90
12470;DHT22;36499;46.484;13.832;2022-09-13T07:31:11;16.70;99.90
12470;DHT22;36499;46.484;13.832;2022-09-13T07:33:41;16.90;99.90
12470;DHT22;36499;46.484;13.832;2022-09-13T07:36:10;17.10;99.90
12470;DHT22;36499;46.484;13.832;2022-09-13T07:38:39;17.20;99.90
12470;DHT22;36499;46.484;13.832;2022-09-13T07:41:10;17.40;99.90
12470;DHT22;36499;46.484;13.832;2022-09-13T07:43:41;17.50;99.90
12470;DHT22;36499;46.484;13.832;2022-09-13T07:46:10;17.70;99.90
12470;DHT22;36499;46.484;13.832;2022-09-13T07:48:43;17.90;99.90
12470;DHT22;36499;46.484;13.832;2022-09-13T07:51:15;18.00;99.90
12470;DHT22;36499;46.484;13.832;2022-09-13T07:53:45;18.10;99.90
12470;DHT22;36499;46.484;13.832;2022-09-13T07:56:17;18.10;99.90
12470;DHT22;36499;46.484;13.832;2022-09-13T07:58:47;18.10;99.90
12470;DHT22;36499;46.484;13.832;2022-09-13T08:01:18;18.20;99.90
12470;DHT22;36499;46.484;13.832;2022-09-13T08:03:50;18.30;99.90
12470;DHT22;36499;46.484;13.832;2022-09-13T08:06:24;18.40;99.90
12470;DHT22;36499;46.484;13.832;2022-09-13T08:08:54;18.60;99.90
12470;DHT22;36499;46.484;13.832;2022-09-13T08:11:25;18.80;99.90
12470;DHT22;36499;46.484;13.832;2022-09-13T08:13:54;18.90;99.90
12470;DHT22;36499;46.484;13.832;2022-09-13T08:16:23;19.00;99.90
12470;DHT22;36499;46.484;13.832;2022-09-13T08:18:59;19.20;99.90
12470;DHT22;36499;46.484;13.832;2022-09-13T08:21:32;19.30;99.90
12470;DHT22;36499;46.484;13.832;2022-09-13T08:24:01;19.30;99.90
12470;DHT22;36499;46.484;13.832;2022-09-13T08:26:32;19.40;99.90
12470;DHT22;36499;46.484;13.832;2022-09-13T08:29:02;19.50;99.90
12470;DHT22;36499;46.484;13.832;2022-09-13T08:31:34;19.60;99.90
12470;DHT22;36499;46.484;13.832;2022-09-13T08:34:02;19.70;99.90
12470;DHT22;36499;46.484;13.832;2022-09-13T08:36:29;19.70;99.90
12470;DHT22;36499;46.484;13.832;2022-09-13T08:38:58;19.70;99.90
12470;DHT22;36499;46.484;13.832;2022-09-13T08:41:53;19.90;99.90
12470;DHT22;36499;46.484;13.832;2022-09-13T08:44:53;19.90;99.90
12470;DHT22;36499;46.484;13.832;2022-09-13T08:47:36;20.00;99.90
12470;DHT22;36499;46.484;13.832;2022-09-13T08:50:13;20.00;99.90
12470;DHT22;36499;46.484;13.832;2022-09-13T08:52:56;20.20;99.90
12470;DHT22;36499;46.484;13.832;2022-09-13T08:55:49;20.20;99.90
12470;DHT22;36499;46.484;13.832;2022-09-13T08:58:47;20.30;99.90
12470;DHT22;36499;46.484;13.832;2022-09-13T09:01:47;20.40;99.90
12470;DHT22;36499;46.484;13.832;2022-09-13T09:04:42;20.60;99.90
12470;DHT22;36499;46.484;13.832;2022-09-13T09:07:16;20.70;99.90
12470;DHT22;36499;46.484;13.832;2022-09-13T09:09:50;20.80;99.90
12470;DHT22;36499;46.484;13.832;2022-09-13T09:12:30;20.90;99.90
12470;DHT22;36499;46.484;13.832;2022-09-13T09:15:12;20.80;99.90
12470;DHT22;36499;46.484;13.832;2022-09-13T09:17:47;20.90;99.90
12470;DHT22;36499;46.484;13.832;2022-09-13T09:20:25;20.90;99.90
12470;DHT22;36499;46.484;13.832;2022-09-13T09:23:00;20.90;99.90
12470;DHT22;36499;46.484;13.832;2022-09-13T09:25:33;20.90;99.90
12470;DHT22;36499;46.484;13.832;2022-09-13T09:28:05;20.90;99.90
12470;DHT22;36499;46.484;13.832;2022-09-13T09:30:45;21.00;99.90
12470;DHT22;36499;46.484;13.832;2022-09-13T09:33:44;21.00;99.90
12470;DHT22;36499;46.484;13.832;2022-09-13T09:36:27;21.20;99.90
12470;DHT22;36499;46.484;13.832;2022-09-13T09:39:11;21.50;99.90
12470;DHT22;36499;46.484;13.832;2022-09-13T09:41:42;21.40;99.90
12470;DHT22;36499;46.484;13.832;2022-09-13T09:44:17;21.50;99.90
12470;DHT22;36499;46.484;13.832;2022-09-13T09:46:49;21.60;99.90
12470;DHT22;36499;46.484;13.832;2022-09-13T09:49:30;21.70;99.90
12470;DHT22;36499;46.484;13.832;2022-09-13T09:52:22;21.80;99.90
12470;DHT22;36499;46.484;13.832;2022-09-13T09:55:00;21.80;99.90
12470;DHT22;36499;46.484;13.832;2022-09-13T09:57:49;21.80;99.90
12470;DHT22;36499;46.484;13.832;2022-09-13T10:00:20;22.00;99.90
12470;DHT22;36499;46.484;13.832;2022-09-13T10:02:52;22.20;99.90
12470;DHT22;36499;46.484;13.832;2022-09-13T10:05:25;22.30;99.90
12470;DHT22;36499;46.484;13.832;2022-09-13T10:07:57;22.30;99.90
12470;DHT22;36499;46.484;13.832;2022-09-13T10:10:34;22.40;99.90
12470;DHT22;36499;46.484;13.832;2022-09-13T10:13:11;22.50;99.90
12470;DHT22;36499;46.484;13.832;2022-09-13T10:15:52;22.60;99.90
12470;DHT22;36499;46.484;13.832;2022-09-13T10:18:22;22.80;99.90
12470;DHT22;36499;46.484;13.832;2022-09-13T10:21:02;22.80;99.90
12470;DHT22;36499;46.484;13.832;2022-09-13T10:23:32;23.00;99.90
12470;DHT22;36499;46.484;13.832;2022-09-13T10:26:06;23.10;99.90
12470;DHT22;36499;46.484;13.832;2022-09-13T10:28:42;23.30;99.90
12470;DHT22;36499;46.484;13.832;2022-09-13T10:31:14;23.40;99.90
12470;DHT22;36499;46.484;13.832;2022-09-13T10:33:55;23.50;99.90
12470;DHT22;36499;46.484;13.832;2022-09-13T10:36:28;23.70;99.90
12470;DHT22;36499;46.484;13.832;2022-09-13T10:38:59;23.90;99.90
12470;DHT22;36499;46.484;13.832;2022-09-13T10:41:33;24.10;99.70
12470;DHT22;36499;46.484;13.832;2022-09-13T10:44:06;24.30;99.90
12470;DHT22;36499;46.484;13.832;2022-09-13T10:46:51;24.60;99.90
12470;DHT22;36499;46.484;13.832;2022-09-13T10:52:42;24.90;99.90
12470;DHT22;36499;46.484;13.832;2022-09-13T10:55:28;25.10;99.40
12470;DHT22;36499;46.484;13.832;2022-09-13T10:58:17;25.20;99.90
12470;DHT22;36499;46.484;13.832;2022-09-13T11:07:45;25.70;98.90
12470;DHT22;36499;46.484;13.832;2022-09-13T11:10:36;26.00;98.00
12470;DHT22;36499;46.484;13.832;2022-09-13T11:13:19;26.10;97.20
12470;DHT22;36499;46.484;13.832;2022-09-13T11:15:58;26.10;95.80
12470;DHT22;36499;46.484;13.832;2022-09-13T11:21:53;26.30;95.90
12470;DHT22;36499;46.484;13.832;2022-09-13T11:24:53;26.30;95.00
12470;DHT22;36499;46.484;13.832;2022-09-13T11:27:34;26.30;94.50
12470;DHT22;36499;46.484;13.832;2022-09-13T11:30:15;26.40;95.50
12470;DHT22;36499;46.484;13.832;2022-09-13T11:35:54;26.40;96.30
12470;DHT22;36499;46.484;13.832;2022-09-13T11:38:44;26.50;96.30
12470;DHT22;36499;46.484;13.832;2022-09-13T11:41:25;26.80;93.60
12470;DHT22;36499;46.484;13.832;2022-09-13T11:47:55;27.00;94.60
12470;DHT22;36499;46.484;13.832;2022-09-13T11:50:41;27.20;92.70
12470;DHT22;36499;46.484;13.832;2022-09-13T11:53:45;27.30;93.80
12470;DHT22;36499;46.484;13.832;2022-09-13T11:56:30;27.40;92.90
12470;DHT22;36499;46.484;13.832;2022-09-13T11:59:14;27.40;91.70
12470;DHT22;36499;46.484;13.832;2022-09-13T12:01:51;27.20;91.50
12470;DHT22;36499;46.484;13.832;2022-09-13T12:04:25;27.00;90.90
12470;DHT22;36499;46.484;13.832;2022-09-13T12:07:00;26.80;91.50
12470;DHT22;36499;46.484;13.832;2022-09-13T12:09:39;26.60;92.70
12470;DHT22;36499;46.484;13.832;2022-09-13T12:12:19;26.50;93.20
12470;DHT22;36499;46.484;13.832;2022-09-13T12:15:02;26.40;93.20
12470;DHT22;36499;46.484;13.832;2022-09-13T12:17:38;26.20;93.50
12470;DHT22;36499;46.484;13.832;2022-09-13T12:20:36;26.10;95.30
12470;DHT22;36499;46.484;13.832;2022-09-13T12:23:14;26.00;92.60
12470;DHT22;36499;46.484;13.832;2022-09-13T12:25:50;25.90;93.10
12470;DHT22;36499;46.484;13.832;2022-09-13T12:28:28;25.80;93.40
12470;DHT22;36499;46.484;13.832;2022-09-13T12:31:04;25.70;94.50
12470;DHT22;36499;46.484;13.832;2022-09-13T12:33:38;25.80;93.60
12470;DHT22;36499;46.484;13.832;2022-09-13T12:39:35;25.60;93.80
12470;DHT22;36499;46.484;13.832;2022-09-13T12:42:32;25.60;92.50
12470;DHT22;36499;46.484;13.832;2022-09-13T12:45:53;25.50;93.70
12470;DHT22;36499;46.484;13.832;2022-09-13T12:49:03;25.60;91.90
12470;DHT22;36499;46.484;13.832;2022-09-13T12:55:05;25.60;92.70
12470;DHT22;36499;46.484;13.832;2022-09-13T12:58:19;25.80;93.20
12470;DHT22;36499;46.484;13.832;2022-09-13T13:01:09;25.90;91.90
12470;DHT22;36499;46.484;13.832;2022-09-13T13:03:47;25.90;92.30
12470;DHT22;36499;46.484;13.832;2022-09-13T13:06:37;26.00;92.10
12470;DHT22;36499;46.484;13.832;2022-09-13T13:09:21;26.00;90.80
12470;DHT22;36499;46.484;13.832;2022-09-13T13:11:56;26.20;91.00
12470;DHT22;36499;46.484;13.832;2022-09-13T13:14:46;26.10;91.30
12470;DHT22;36499;46.484;13.832;2022-09-13T13:17:46;26.10;91.00
12470;DHT22;36499;46.484;13.832;2022-09-13T13:20:46;26.20;90.90
12470;DHT22;36499;46.484;13.832;2022-09-13T13:23:38;26.10;91.50
12470;DHT22;36499;46.484;13.832;2022-09-13T13:26:09;26.10;91.20
12470;DHT22;36499;46.484;13.832;2022-09-13T13:29:15;26.10;90.70
12470;DHT22;36499;46.484;13.832;2022-09-13T13:32:09;25.90;90.70
12470;DHT22;36499;46.484;13.832;2022-09-13T13:34:43;25.80;90.30
12470;DHT22;36499;46.484;13.832;2022-09-13T13:37:36;25.70;90.90
12470;DHT22;36499;46.484;13.832;2022-09-13T13:40:21;25.70;92.10
12470;DHT22;36499;46.484;13.832;2022-09-13T13:46:23;25.80;92.20
12470;DHT22;36499;46.484;13.832;2022-09-13T13:48:55;25.80;92.40
12470;DHT22;36499;46.484;13.832;2022-09-13T13:52:35;25.90;91.60
12470;DHT22;36499;46.484;13.832;2022-09-13T13:55:36;26.10;92.50
12470;DHT22;36499;46.484;13.832;2022-09-13T13:58:26;26.10;91.90
12470;DHT22;36499;46.484;13.832;2022-09-13T14:00:59;26.40;93.30
12470;DHT22;36499;46.484;13.832;2022-09-13T14:03:44;26.40;92.60
12470;DHT22;36499;46.484;13.832;2022-09-13T14:06:27;26.50;92.70
12470;DHT22;36499;46.484;13.832;2022-09-13T14:09:34;26.50;93.10
12470;DHT22;36499;46.484;13.832;2022-09-13T14:12:20;26.70;92.70
12470;DHT22;36499;46.484;13.832;2022-09-13T14:15:15;26.70;93.10
12470;DHT22;36499;46.484;13.832;2022-09-13T14:18:25;26.80;92.80
12470;DHT22;36499;46.484;13.832;2022-09-13T14:21:20;27.00;93.70
12470;DHT22;36499;46.484;13.832;2022-09-13T14:23:50;27.20;94.20
12470;DHT22;36499;46.484;13.832;2022-09-13T14:26:34;27.20;93.90
12470;DHT22;36499;46.484;13.832;2022-09-13T14:29:07;27.20;93.40
12470;DHT22;36499;46.484;13.832;2022-09-13T14:31:50;27.20;93.80
12470;DHT22;36499;46.484;13.832;2022-09-13T14:34:21;27.30;93.40
12470;DHT22;36499;46.484;13.832;2022-09-13T14:37:00;27.20;93.60
12470;DHT22;36499;46.484;13.832;2022-09-13T14:39:29;27.10;93.20
12470;DHT22;36499;46.484;13.832;2022-09-13T14:41:58;27.20;93.60
12470;DHT22;36499;46.484;13.832;2022-09-13T14:44:28;27.10;93.60
12470;DHT22;36499;46.484;13.832;2022-09-13T14:47:04;27.10;94.40
12470;DHT22;36499;46.484;13.832;2022-09-13T14:49:37;27.00;93.30
12470;DHT22;36499;46.484;13.832;2022-09-13T14:52:18;26.90;93.80
12470;DHT22;36499;46.484;13.832;2022-09-13T14:54:52;26.90;94.20
12470;DHT22;36499;46.484;13.832;2022-09-13T14:57:41;27.00;94.20
12470;DHT22;36499;46.484;13.832;2022-09-13T15:00:18;27.10;94.40
12470;DHT22;36499;46.484;13.832;2022-09-13T15:02:54;26.90;93.80
12470;DHT22;36499;46.484;13.832;2022-09-13T15:05:26;26.80;94.00
12470;DHT22;36499;46.484;13.832;2022-09-13T15:07:58;26.70;94.00
12470;DHT22;36499;46.484;13.832;2022-09-13T15:10:27;26.70;94.60
12470;DHT22;36499;46.484;13.832;2022-09-13T15:13:07;26.80;94.40
12470;DHT22;36499;46.484;13.832;2022-09-13T15:15:36;26.80;94.60
12470;DHT22;36499;46.484;13.832;2022-09-13T15:18:11;26.80;94.60
12470;DHT22;36499;46.484;13.832;2022-09-13T15:20:51;26.60;94.60
12470;DHT22;36499;46.484;13.832;2022-09-13T15:23:25;26.50;94.60
12470;DHT22;36499;46.484;13.832;2022-09-13T15:25:56;26.40;95.10
12470;DHT22;36499;46.484;13.832;2022-09-13T15:28:28;26.30;95.00
12470;DHT22;36499;46.484;13.832;2022-09-13T15:30:59;26.10;95.80
12470;DHT22;36499;46.484;13.832;2022-09-13T15:33:29;26.00;96.50
12470;DHT22;36499;46.484;13.832;2022-09-13T15:36:24;25.60;97.60
12470;DHT22;36499;46.484;13.832;2022-09-13T15:39:13;25.10;97.90
12470;DHT22;36499;46.484;13.832;2022-09-13T15:41:51;25.10;98.20
12470;DHT22;36499;46.484;13.832;2022-09-13T15:44:21;25.00;98.80
12470;DHT22;36499;46.484;13.832;2022-09-13T15:46:51;24.90;98.60
12470;DHT22;36499;46.484;13.832;2022-09-13T15:49:21;24.90;99.00
12470;DHT22;36499;46.484;13.832;2022-09-13T15:51:53;24.80;99.40
12470;DHT22;36499;46.484;13.832;2022-09-13T15:54:26;24.70;99.90
12470;DHT22;36499;46.484;13.832;2022-09-13T15:56:58;24.50;99.60
12470;DHT22;36499;46.484;13.832;2022-09-13T15:59:25;24.40;99.60
12470;DHT22;36499;46.484;13.832;2022-09-13T16:01:53;24.40;99.90
12470;DHT22;36499;46.484;13.832;2022-09-13T16:04:21;24.40;99.90
12470;DHT22;36499;46.484;13.832;2022-09-13T16:06:48;24.40;99.80
12470;DHT22;36499;46.484;13.832;2022-09-13T16:09:17;24.30;99.90
12470;DHT22;36499;46.484;13.832;2022-09-13T16:11:48;24.30;99.90
12470;DHT22;36499;46.484;13.832;2022-09-13T16:14:17;24.30;99.90
12470;DHT22;36499;46.484;13.832;2022-09-13T16:16:45;24.20;99.90
12470;DHT22;36499;46.484;13.832;2022-09-13T16:19:14;24.10;99.90
12470;DHT22;36499;46.484;13.832;2022-09-13T16:21:43;24.00;99.90
12470;DHT22;36499;46.484;13.832;2022-09-13T16:24:10;23.90;99.90
12470;DHT22;36499;46.484;13.832;2022-09-13T16:26:38;23.80;99.90
12470;DHT22;36499;46.484;13.832;2022-09-13T16:29:08;23.70;99.90
12470;DHT22;36499;46.484;13.832;2022-09-13T16:31:36;23.70;99.90
12470;DHT22;36499;46.484;13.832;2022-09-13T16:34:04;23.60;99.90
12470;DHT22;36499;46.484;13.832;2022-09-13T16:36:31;23.40;99.90
12470;DHT22;36499;46.484;13.832;2022-09-13T16:38:59;23.30;99.90
12470;DHT22;36499;46.484;13.832;2022-09-13T16:41:26;23.30;99.90
12470;DHT22;36499;46.484;13.832;2022-09-13T16:43:54;23.20;99.90
12470;DHT22;36499;46.484;13.832;2022-09-13T16:46:23;23.00;99.90
12470;DHT22;36499;46.484;13.832;2022-09-13T16:48:53;22.90;99.90
12470;DHT22;36499;46.484;13.832;2022-09-13T16:51:21;22.80;99.90
12470;DHT22;36499;46.484;13.832;2022-09-13T16:53:50;22.70;99.90